createdAt,value
2023-01-20T00:01:37.326Z,91.80
2023-01-20T00:04:04.992Z,91.50
2023-01-20T00:06:32.556Z,91.60
2023-01-20T00:09:00.926Z,91.50
2023-01-20T00:11:28.475Z,91.80
2023-01-20T00:14:02.371Z,91.70
2023-01-20T00:16:31.038Z,92.20
2023-01-20T00:18:58.377Z,92.40
2023-01-20T00:21:25.707Z,92.00
2023-01-20T00:23:53.044Z,91.70
2023-01-20T00:26:21.688Z,91.90
2023-01-20T00:28:49.185Z,92.00
2023-01-20T00:31:20.249Z,92.10
2023-01-20T00:33:48.219Z,92.20
2023-01-20T00:36:16.255Z,92.30
2023-01-20T00:38:43.613Z,92.30
2023-01-20T00:41:10.924Z,92.90
2023-01-20T00:43:38.459Z,92.70
2023-01-20T00:46:05.838Z,92.90
2023-01-20T00:48:33.636Z,92.60
2023-01-20T00:51:01.306Z,92.70
2023-01-20T00:53:28.698Z,92.60
2023-01-20T00:55:56.094Z,92.80
2023-01-20T00:58:23.646Z,93.20
2023-01-20T01:00:51.779Z,93.50
2023-01-20T01:03:19.148Z,93.60
2023-01-20T01:05:46.486Z,93.90
2023-01-20T01:08:13.864Z,93.30
2023-01-20T01:10:41.458Z,93.20
2023-01-20T01:13:08.814Z,93.40
2023-01-20T01:15:36.367Z,93.70
2023-01-20T01:18:04.012Z,93.60
2023-01-20T01:20:31.327Z,93.90
2023-01-20T01:22:58.655Z,93.80
2023-01-20T01:25:26.000Z,93.30
2023-01-20T01:27:53.267Z,93.40
2023-01-20T01:30:20.705Z,93.50
2023-01-20T01:32:47.988Z,93.40
2023-01-20T01:35:15.534Z,93.40
2023-01-20T01:37:43.062Z,93.20
2023-01-20T01:40:10.922Z,93.30
2023-01-20T01:42:38.259Z,93.50
2023-01-20T01:45:11.893Z,93.70
2023-01-20T01:47:58.344Z,93.40
2023-01-20T01:50:28.251Z,93.40
2023-01-20T01:52:56.095Z,93.70
2023-01-20T01:55:26.696Z,93.80
2023-01-20T01:57:54.077Z,93.90
2023-01-20T02:00:21.571Z,94.10
2023-01-20T02:02:48.877Z,93.80
2023-01-20T02:05:16.675Z,93.50
2023-01-20T02:07:45.416Z,93.70
2023-01-20T02:10:13.135Z,93.70
2023-01-20T02:12:41.012Z,94.10
2023-01-20T02:15:08.703Z,94.50
2023-01-20T02:18:06.154Z,94.40
2023-01-20T02:20:46.784Z,94.60
2023-01-20T02:24:09.670Z,94.30
2023-01-20T02:27:02.655Z,94.10
2023-01-20T02:30:09.134Z,94.10
2023-01-20T02:32:47.647Z,94.20
2023-01-20T02:35:35.547Z,94.10
2023-01-20T02:38:44.023Z,94.00
2023-01-20T02:41:20.739Z,94.40
2023-01-20T02:43:48.108Z,94.60
2023-01-20T02:46:25.601Z,94.80
2023-01-20T02:48:54.869Z,94.60
2023-01-20T02:51:25.935Z,94.50
2023-01-20T02:54:02.595Z,94.70
2023-01-20T02:56:30.134Z,94.70
2023-01-20T02:59:03.271Z,94.50
2023-01-20T03:01:34.026Z,94.60
2023-01-20T03:04:01.945Z,94.50
2023-01-20T03:06:32.416Z,94.20
2023-01-20T03:09:00.999Z,94.10
2023-01-20T03:11:29.345Z,94.20
2023-01-20T03:14:06.424Z,94.10
2023-01-20T03:16:33.895Z,94.40
2023-01-20T03:19:01.207Z,94.10
2023-01-20T03:21:28.507Z,93.40
2023-01-20T03:23:57.921Z,93.70
2023-01-20T03:26:25.265Z,94.10
2023-01-20T03:28:54.495Z,93.80
2023-01-20T03:31:26.467Z,94.10
2023-01-20T03:33:55.215Z,94.20
2023-01-20T03:36:23.720Z,94.10
2023-01-20T03:38:51.059Z,94.40
2023-01-20T03:41:33.188Z,93.80
2023-01-20T03:44:26.812Z,94.00
2023-01-20T03:47:12.769Z,94.00
2023-01-20T03:49:58.901Z,93.90
2023-01-20T03:52:47.224Z,94.00
2023-01-20T03:55:20.587Z,94.10
2023-01-20T03:57:59.344Z,94.40
2023-01-20T04:00:26.688Z,94.40
2023-01-20T04:02:57.213Z,94.70
2023-01-20T04:05:24.548Z,94.60
2023-01-20T04:07:51.851Z,94.60
2023-01-20T04:10:19.212Z,94.90
2023-01-20T04:12:46.554Z,94.80
2023-01-20T04:15:14.275Z,94.90
2023-01-20T04:17:41.722Z,95.30
2023-01-20T04:20:10.847Z,95.70
2023-01-20T04:22:43.279Z,95.70
2023-01-20T04:25:17.540Z,95.70
2023-01-20T04:27:44.812Z,96.10
2023-01-20T04:30:13.733Z,96.10
2023-01-20T04:32:41.076Z,96.60
2023-01-20T04:35:13.218Z,96.90
2023-01-20T04:37:40.858Z,97.00
2023-01-20T04:40:09.402Z,97.80
2023-01-20T04:42:37.069Z,98.40
2023-01-20T04:45:04.720Z,98.80
2023-01-20T04:47:32.727Z,99.00
2023-01-20T04:50:00.193Z,99.30
2023-01-20T04:52:27.567Z,99.90
2023-01-20T04:54:54.853Z,99.90
2023-01-20T04:57:22.164Z,99.90
2023-01-20T04:59:49.949Z,99.90
2023-01-20T05:02:17.342Z,99.90
2023-01-20T05:04:45.321Z,99.90
2023-01-20T05:07:12.621Z,99.90
2023-01-20T05:09:40.102Z,99.90
2023-01-20T05:12:07.575Z,99.90
2023-01-20T05:14:34.901Z,99.90
2023-01-20T05:17:02.248Z,99.90
2023-01-20T05:19:29.748Z,99.90
2023-01-20T05:21:57.087Z,99.90
2023-01-20T05:24:24.695Z,99.90
2023-01-20T05:26:52.128Z,99.90
2023-01-20T05:29:19.449Z,99.90
2023-01-20T05:31:46.769Z,99.90
2023-01-20T05:34:14.234Z,99.90
2023-01-20T05:36:41.535Z,99.90
2023-01-20T05:39:08.853Z,99.90
2023-01-20T05:41:36.169Z,99.90
2023-01-20T05:44:03.525Z,99.90
2023-01-20T05:46:30.855Z,99.90
2023-01-20T05:48:58.256Z,99.90
2023-01-20T05:51:25.649Z,99.90
2023-01-20T05:53:52.994Z,99.90
2023-01-20T05:56:20.335Z,99.90
2023-01-20T05:58:47.771Z,99.90
2023-01-20T06:01:15.196Z,99.90
2023-01-20T06:03:42.794Z,99.90
2023-01-20T06:06:14.277Z,99.90
2023-01-20T06:08:41.934Z,99.90
2023-01-20T06:11:09.603Z,99.90
2023-01-20T06:13:36.992Z,99.90
2023-01-20T06:16:07.092Z,99.90
2023-01-20T06:18:34.829Z,99.90
2023-01-20T06:21:02.150Z,99.90
2023-01-20T06:23:29.469Z,99.90
2023-01-20T06:26:03.764Z,99.90
2023-01-20T06:28:32.868Z,99.90
2023-01-20T06:31:07.820Z,99.90
2023-01-20T06:33:35.253Z,99.90
2023-01-20T06:36:02.693Z,99.90
2023-01-20T06:38:31.733Z,99.90
2023-01-20T06:41:00.100Z,99.90
2023-01-20T06:43:31.112Z,99.90
2023-01-20T06:46:01.990Z,99.90
2023-01-20T06:48:29.464Z,99.90
2023-01-20T06:51:07.550Z,99.90
2023-01-20T06:53:34.859Z,99.90
2023-01-20T06:56:02.488Z,99.90
2023-01-20T06:58:31.191Z,99.90
2023-01-20T07:00:59.147Z,99.90
2023-01-20T07:03:26.467Z,99.90
2023-01-20T07:06:15.193Z,99.90
2023-01-20T07:08:43.877Z,99.90
2023-01-20T07:11:11.261Z,99.90
2023-01-20T07:13:38.659Z,99.90
2023-01-20T07:16:06.473Z,99.90
2023-01-20T07:18:34.763Z,99.90
2023-01-20T07:21:03.005Z,99.90
2023-01-20T07:23:45.831Z,99.90
2023-01-20T07:26:15.037Z,99.90
2023-01-20T07:28:42.478Z,99.90
2023-01-20T07:31:11.455Z,99.90
2023-01-20T07:33:38.804Z,99.90
2023-01-20T07:36:07.263Z,99.90
2023-01-20T07:38:34.687Z,99.90
2023-01-20T07:41:05.100Z,99.90
2023-01-20T07:43:32.648Z,99.90
2023-01-20T07:46:01.065Z,99.90
2023-01-20T07:48:29.699Z,99.90
2023-01-20T07:51:05.603Z,99.90
2023-01-20T07:53:37.749Z,99.90
2023-01-20T07:56:13.381Z,99.90
2023-01-20T07:58:40.707Z,99.90
2023-01-20T08:01:10.480Z,99.90
2023-01-20T08:03:37.841Z,99.90
2023-01-20T08:06:06.317Z,99.90
2023-01-20T08:08:33.859Z,99.90
2023-01-20T08:11:01.560Z,99.90
2023-01-20T08:13:29.319Z,99.90
2023-01-20T08:15:59.170Z,99.90
2023-01-20T08:18:26.688Z,99.90
2023-01-20T08:20:53.968Z,99.90
2023-01-20T08:23:21.299Z,99.90
2023-01-20T08:25:48.575Z,99.90
2023-01-20T08:28:15.882Z,99.90
2023-01-20T08:30:43.230Z,99.90
2023-01-20T08:33:10.541Z,99.90
2023-01-20T08:35:38.089Z,99.90
2023-01-20T08:38:06.738Z,99.90
2023-01-20T08:40:34.274Z,99.90
2023-01-20T08:43:01.861Z,99.90
2023-01-20T08:45:29.169Z,99.90
2023-01-20T08:47:56.522Z,99.90
2023-01-20T08:50:24.549Z,99.90
2023-01-20T08:52:51.861Z,99.90
2023-01-20T08:55:19.851Z,99.90
2023-01-20T08:57:47.203Z,99.90
2023-01-20T09:00:15.141Z,99.90
2023-01-20T09:02:42.458Z,99.90
2023-01-20T09:05:10.355Z,99.90
2023-01-20T09:07:37.625Z,99.90
2023-01-20T09:10:05.483Z,99.90
2023-01-20T09:12:32.857Z,99.90
2023-01-20T09:15:00.208Z,99.90
2023-01-20T09:17:27.482Z,99.90
2023-01-20T09:19:54.789Z,99.90
2023-01-20T09:22:22.061Z,99.90
2023-01-20T09:24:49.381Z,99.90
2023-01-20T09:27:16.723Z,99.90
2023-01-20T09:29:44.034Z,99.90
2023-01-20T09:32:11.510Z,99.90
2023-01-20T09:34:39.461Z,99.90
2023-01-20T09:37:25.260Z,99.90
2023-01-20T09:40:11.281Z,99.90
2023-01-20T09:43:17.304Z,99.90
2023-01-20T09:45:48.861Z,99.90
2023-01-20T09:48:56.507Z,99.90
2023-01-20T09:51:47.116Z,99.90
2023-01-20T09:54:23.320Z,99.90
2023-01-20T09:56:50.687Z,99.90
2023-01-20T09:59:40.604Z,99.90
2023-01-20T10:02:13.717Z,99.90
2023-01-20T10:04:43.207Z,99.90
2023-01-20T10:07:24.671Z,99.90
2023-01-20T10:10:19.570Z,99.90
2023-01-20T10:13:07.232Z,99.90
2023-01-20T10:15:37.722Z,99.90
2023-01-20T10:18:16.763Z,99.90
2023-01-20T10:20:51.004Z,99.90
2023-01-20T10:23:29.493Z,99.90
2023-01-20T10:26:09.243Z,99.90
2023-01-20T10:28:58.092Z,99.90
2023-01-20T10:31:31.168Z,99.90
2023-01-20T10:34:18.693Z,99.90
2023-01-20T10:36:50.535Z,99.90
2023-01-20T10:39:28.132Z,99.90
2023-01-20T10:42:04.257Z,99.90
2023-01-20T10:44:35.649Z,99.90
2023-01-20T10:47:47.236Z,99.90
2023-01-20T10:50:33.853Z,99.90
2023-01-20T10:53:13.356Z,99.90
2023-01-20T10:55:49.833Z,99.90
2023-01-20T10:58:26.314Z,99.90
2023-01-20T11:00:53.645Z,99.90
2023-01-20T11:03:22.287Z,99.90
2023-01-20T11:05:50.751Z,99.90
2023-01-20T11:08:20.383Z,99.90
2023-01-20T11:10:49.235Z,99.90
2023-01-20T11:13:16.986Z,99.90
2023-01-20T11:15:50.142Z,99.90
2023-01-20T11:18:17.518Z,99.90
2023-01-20T11:20:50.338Z,99.90
2023-01-20T11:23:38.256Z,99.90
2023-01-20T11:26:32.635Z,99.90
2023-01-20T11:29:22.478Z,99.90
2023-01-20T11:31:53.506Z,99.90
2023-01-20T11:34:23.661Z,99.90
2023-01-20T11:36:51.828Z,99.90
2023-01-20T11:39:30.805Z,99.90
2023-01-20T11:42:14.933Z,99.90
2023-01-20T11:44:51.340Z,99.90
2023-01-20T11:47:25.785Z,99.90
2023-01-20T11:50:09.401Z,99.90
2023-01-20T11:52:44.215Z,99.90
2023-01-20T11:55:23.462Z,99.90
2023-01-20T11:57:54.642Z,99.90
2023-01-20T12:00:43.392Z,99.90
2023-01-20T12:03:10.804Z,99.90
2023-01-20T12:05:43.963Z,99.90
2023-01-20T12:08:17.160Z,99.90
2023-01-20T12:10:44.603Z,99.90
2023-01-20T12:13:15.025Z,99.90
2023-01-20T12:15:44.109Z,99.90
2023-01-20T12:18:56.936Z,99.90
2023-01-20T12:21:34.307Z,99.90
2023-01-20T12:24:19.302Z,99.90
2023-01-20T12:26:46.667Z,99.90
2023-01-20T12:29:22.457Z,99.90
2023-01-20T12:31:49.905Z,99.90
2023-01-20T12:34:21.606Z,99.90
2023-01-20T12:37:21.261Z,99.90
2023-01-20T12:40:26.404Z,99.90
2023-01-20T12:43:18.620Z,99.90
2023-01-20T12:45:59.543Z,99.90
2023-01-20T12:49:11.386Z,99.90
2023-01-20T12:52:18.752Z,99.90
2023-01-20T12:54:55.009Z,99.90
2023-01-20T12:57:36.357Z,99.90
2023-01-20T13:00:14.255Z,99.90
2023-01-20T13:02:54.136Z,99.90
2023-01-20T13:05:33.515Z,99.90
2023-01-20T13:08:12.822Z,99.90
2023-01-20T13:11:10.739Z,99.90
2023-01-20T13:14:15.650Z,99.90
2023-01-20T13:16:43.113Z,99.90
2023-01-20T13:19:29.999Z,99.90
2023-01-20T13:22:07.696Z,99.90
2023-01-20T13:24:35.652Z,99.90
2023-01-20T13:27:03.083Z,99.90
2023-01-20T13:29:36.642Z,99.90
2023-01-20T13:32:04.782Z,99.90
2023-01-20T13:34:33.510Z,99.90
2023-01-20T13:37:03.850Z,99.90
2023-01-20T13:39:47.040Z,99.90
2023-01-20T13:42:36.444Z,99.90
2023-01-20T13:45:13.320Z,99.90
2023-01-20T13:48:06.371Z,99.90
2023-01-20T13:50:35.034Z,99.90
2023-01-20T13:53:12.114Z,99.90
2023-01-20T13:55:45.419Z,99.90
2023-01-20T13:58:24.499Z,99.90
2023-01-20T14:00:53.996Z,99.90
2023-01-20T14:03:23.268Z,99.90
2023-01-20T14:05:54.382Z,99.90
2023-01-20T14:08:22.298Z,99.90
2023-01-20T14:10:49.673Z,99.90
2023-01-20T14:13:20.438Z,99.90
2023-01-20T14:15:52.879Z,99.90
2023-01-20T14:18:23.999Z,99.90
2023-01-20T14:21:04.161Z,99.90
2023-01-20T14:23:34.440Z,99.90
2023-01-20T14:26:05.812Z,99.90
2023-01-20T14:28:33.301Z,99.90
2023-01-20T14:31:34.381Z,99.90
2023-01-20T14:34:21.488Z,99.90
2023-01-20T14:36:48.956Z,99.90
2023-01-20T14:39:21.080Z,99.90
2023-01-20T14:41:53.327Z,99.90
2023-01-20T14:44:25.376Z,99.90
2023-01-20T14:46:54.449Z,99.90
2023-01-20T14:49:22.722Z,99.90
2023-01-20T14:51:50.872Z,99.90
2023-01-20T14:54:38.317Z,99.90
2023-01-20T14:57:28.842Z,99.90
2023-01-20T15:00:01.361Z,99.90
2023-01-20T15:02:33.894Z,99.90
2023-01-20T15:05:01.453Z,99.90
2023-01-20T15:07:28.795Z,99.90
2023-01-20T15:10:08.382Z,99.90
2023-01-20T15:12:44.937Z,99.90
2023-01-20T15:15:31.993Z,99.90
2023-01-20T15:18:11.583Z,99.90
2023-01-20T15:20:43.667Z,99.90
2023-01-20T15:23:18.335Z,99.90
2023-01-20T15:25:45.758Z,99.90
2023-01-20T15:28:42.938Z,99.90
2023-01-20T15:31:13.963Z,99.90
2023-01-20T15:33:41.434Z,99.90
2023-01-20T15:36:37.089Z,99.90
2023-01-20T15:39:06.004Z,99.90
2023-01-20T15:41:33.292Z,99.90
2023-01-20T15:44:00.653Z,99.90
2023-01-20T15:46:27.974Z,99.90
2023-01-20T15:48:55.313Z,99.90
2023-01-20T15:51:22.688Z,99.90
2023-01-20T15:53:50.280Z,99.90
2023-01-20T15:56:22.715Z,99.90
2023-01-20T15:58:50.285Z,99.90
2023-01-20T16:01:24.012Z,99.90
2023-01-20T16:03:52.583Z,99.90
2023-01-20T16:06:20.180Z,99.90
2023-01-20T16:08:48.833Z,99.90
2023-01-20T16:11:17.302Z,99.90
2023-01-20T16:13:44.878Z,99.90
2023-01-20T16:16:23.430Z,99.90
2023-01-20T16:18:50.846Z,99.90
2023-01-20T16:21:20.441Z,99.90
2023-01-20T16:23:47.815Z,99.90
2023-01-20T16:26:27.009Z,99.90
2023-01-20T16:28:56.052Z,99.90
2023-01-20T16:31:23.971Z,99.90
2023-01-20T16:33:53.416Z,99.90
2023-01-20T16:36:24.278Z,99.90
2023-01-20T16:38:51.947Z,99.90
2023-01-20T16:41:23.631Z,99.90
2023-01-20T16:43:52.052Z,99.90
2023-01-20T16:46:23.831Z,99.90
2023-01-20T16:48:51.431Z,99.90
2023-01-20T16:51:22.731Z,99.90
2023-01-20T16:53:50.182Z,99.90
2023-01-20T16:56:19.637Z,99.90
2023-01-20T16:58:50.047Z,99.90
2023-01-20T17:01:22.039Z,99.90
2023-01-20T17:03:49.831Z,99.90
2023-01-20T17:06:19.126Z,99.90
2023-01-20T17:08:47.377Z,99.90
2023-01-20T17:11:18.796Z,99.90
2023-01-20T17:13:46.521Z,99.90
2023-01-20T17:16:14.041Z,99.90
2023-01-20T17:18:47.525Z,99.90
2023-01-20T17:21:15.077Z,99.90
2023-01-20T17:23:42.497Z,99.90
2023-01-20T17:26:09.897Z,99.90
2023-01-20T17:28:37.362Z,99.90
2023-01-20T17:31:06.276Z,99.90
2023-01-20T17:33:33.882Z,99.90
2023-01-20T17:36:03.077Z,99.90
2023-01-20T17:38:31.180Z,99.90
2023-01-20T17:41:02.566Z,99.90
2023-01-20T17:43:33.734Z,99.90
2023-01-20T17:46:01.230Z,99.90
2023-01-20T17:48:28.687Z,99.90
2023-01-20T17:50:59.178Z,99.90
2023-01-20T17:53:26.922Z,99.90
2023-01-20T17:56:06.772Z,99.90
2023-01-20T17:58:39.178Z,99.90
2023-01-20T18:01:19.872Z,99.90
2023-01-20T18:03:48.663Z,99.90
2023-01-20T18:06:16.848Z,99.90
2023-01-20T18:08:44.392Z,99.90
2023-01-20T18:11:21.787Z,99.90
2023-01-20T18:13:50.442Z,99.90
2023-01-20T18:16:18.935Z,99.90
2023-01-20T18:18:47.049Z,99.90
2023-01-20T18:21:22.252Z,99.90
2023-01-20T18:23:50.068Z,99.90
2023-01-20T18:26:21.840Z,99.90
2023-01-20T18:28:49.371Z,99.90
2023-01-20T18:31:18.181Z,99.90
2023-01-20T18:33:51.464Z,99.90
2023-01-20T18:36:23.470Z,99.90
2023-01-20T18:38:58.029Z,99.90
2023-01-20T18:41:26.026Z,99.90
2023-01-20T18:43:53.524Z,99.90
2023-01-20T18:46:20.995Z,99.90
2023-01-20T18:48:49.043Z,99.90
2023-01-20T18:51:17.933Z,99.90
2023-01-20T18:53:45.457Z,99.90
2023-01-20T18:56:14.946Z,99.90
2023-01-20T18:58:46.959Z,99.90
2023-01-20T19:01:18.063Z,99.90
2023-01-20T19:03:46.332Z,99.90
2023-01-20T19:06:15.819Z,99.90
2023-01-20T19:08:43.975Z,99.90
2023-01-20T19:11:17.591Z,99.90
2023-01-20T19:13:46.382Z,99.90
2023-01-20T19:16:13.889Z,99.90
2023-01-20T19:18:41.599Z,99.90
2023-01-20T19:21:11.052Z,99.90
2023-01-20T19:23:38.519Z,99.90
2023-01-20T19:26:08.200Z,99.90
2023-01-20T19:28:35.709Z,99.90
2023-01-20T19:31:18.458Z,99.90
2023-01-20T19:33:46.495Z,99.90
2023-01-20T19:36:15.025Z,99.90
2023-01-20T19:38:42.779Z,99.90
2023-01-20T19:41:15.037Z,99.90
2023-01-20T19:43:42.943Z,99.90
2023-01-20T19:46:15.512Z,99.90
2023-01-20T19:48:43.134Z,99.90
2023-01-20T19:51:14.996Z,99.90
2023-01-20T19:53:43.168Z,99.90
2023-01-20T19:56:12.251Z,99.90
2023-01-20T19:58:39.988Z,99.90
2023-01-20T20:01:07.359Z,99.90
2023-01-20T20:03:35.953Z,99.90
2023-01-20T20:06:07.033Z,99.90
2023-01-20T20:08:36.289Z,99.90
2023-01-20T20:11:03.606Z,99.90
2023-01-20T20:13:30.913Z,99.90
2023-01-20T20:16:02.410Z,99.90
2023-01-20T20:18:29.862Z,99.90
2023-01-20T20:20:57.263Z,99.90
2023-01-20T20:23:24.685Z,99.90
2023-01-20T20:25:56.183Z,99.90
2023-01-20T20:28:27.131Z,99.90
2023-01-20T20:30:57.665Z,99.90
2023-01-20T20:33:25.104Z,99.90
2023-01-20T20:35:52.464Z,99.90
2023-01-20T20:38:19.860Z,99.90
2023-01-20T20:40:47.136Z,99.90
2023-01-20T20:43:14.518Z,99.90
2023-01-20T20:45:41.841Z,99.90
2023-01-20T20:48:10.729Z,99.90
2023-01-20T20:50:38.067Z,99.90
2023-01-20T20:53:05.387Z,99.90
2023-01-20T20:55:32.771Z,99.90
2023-01-20T20:58:00.089Z,99.90
2023-01-20T21:00:28.280Z,99.90
2023-01-20T21:02:55.765Z,99.90
2023-01-20T21:05:23.171Z,99.90
2023-01-20T21:07:50.592Z,99.90
2023-01-20T21:10:18.284Z,99.90
2023-01-20T21:12:46.712Z,99.90
2023-01-20T21:15:14.087Z,99.90
2023-01-20T21:17:41.414Z,99.90
2023-01-20T21:20:09.380Z,99.90
2023-01-20T21:22:36.839Z,99.90
2023-01-20T21:25:04.496Z,99.90
2023-01-20T21:27:33.005Z,99.90
2023-01-20T21:30:00.315Z,99.90
2023-01-20T21:32:27.621Z,99.90
2023-01-20T21:34:55.144Z,99.90
2023-01-20T21:37:22.467Z,99.90
2023-01-20T21:39:49.804Z,99.90
2023-01-20T21:42:17.163Z,99.90
2023-01-20T21:44:44.465Z,99.90
2023-01-20T21:47:11.875Z,99.90
2023-01-20T21:49:57.796Z,99.90
2023-01-20T21:52:44.098Z,99.90
2023-01-20T21:55:21.614Z,99.90
2023-01-20T21:57:51.169Z,99.90
2023-01-20T22:00:19.366Z,99.90
2023-01-20T22:02:46.946Z,99.90
2023-01-20T22:05:14.360Z,99.90
2023-01-20T22:07:41.696Z,99.90
2023-01-20T22:10:09.845Z,99.90
2023-01-20T22:12:37.449Z,99.90
2023-01-20T22:15:05.237Z,99.90
2023-01-20T22:17:32.683Z,99.90
2023-01-20T22:20:00.042Z,99.90
2023-01-20T22:22:27.397Z,99.90
2023-01-20T22:24:54.746Z,99.90
2023-01-20T22:27:22.209Z,99.90
2023-01-20T22:29:49.555Z,99.90
2023-01-20T22:32:16.883Z,99.90
2023-01-20T22:34:44.204Z,99.90
2023-01-20T22:37:11.525Z,99.90
2023-01-20T22:39:38.843Z,99.90
2023-01-20T22:42:06.692Z,99.90
2023-01-20T22:44:33.989Z,99.90
2023-01-20T22:47:01.556Z,99.90
2023-01-20T22:49:29.888Z,99.90
2023-01-20T22:51:57.187Z,99.90
2023-01-20T22:54:24.488Z,99.90
2023-01-20T22:56:51.822Z,99.90
2023-01-20T22:59:19.136Z,99.90
2023-01-20T23:01:46.494Z,99.90
2023-01-20T23:04:15.001Z,99.90
2023-01-20T23:06:42.327Z,99.90
2023-01-20T23:09:11.859Z,99.90
2023-01-20T23:11:40.137Z,99.90
2023-01-20T23:14:10.562Z,99.90
2023-01-20T23:16:38.150Z,99.90
2023-01-20T23:19:05.723Z,99.90
2023-01-20T23:21:33.058Z,99.90
2023-01-20T23:24:00.398Z,99.90
2023-01-20T23:26:29.501Z,99.90
2023-01-20T23:28:56.862Z,99.90
2023-01-20T23:31:25.137Z,99.90
2023-01-20T23:33:53.986Z,99.90
2023-01-20T23:36:25.421Z,99.90
2023-01-20T23:38:56.112Z,99.90
2023-01-20T23:41:23.679Z,99.90
2023-01-20T23:43:50.964Z,99.90
2023-01-20T23:46:18.287Z,99.90
2023-01-20T23:48:46.687Z,99.90
2023-01-20T23:51:14.112Z,99.90
2023-01-20T23:53:41.542Z,99.90
2023-01-20T23:56:12.028Z,99.90
2023-01-20T23:58:39.641Z,99.90
